sensor_id;sensor_type;location;lat;lon;timestamp;P1;durP1;ratioP1;P2;durP2;ratioP2
52494;SDS011;38405;53.212;5.660;2023-08-06T00:00:11;5.13;;;4.07;;
52494;SDS011;38405;53.212;5.660;2023-08-06T00:02:37;6.70;;;5.00;;
52494;SDS011;38405;53.212;5.660;2023-08-06T00:05:03;6.25;;;4.68;;
52494;SDS011;38405;53.212;5.660;2023-08-06T00:07:29;4.50;;;4.10;;
52494;SDS011;38405;53.212;5.660;2023-08-06T00:09:54;8.20;;;4.60;;
52494;SDS011;38405;53.212;5.660;2023-08-06T00:12:20;6.05;;;4.40;;
52494;SDS011;38405;53.212;5.660;2023-08-06T00:14:49;4.50;;;4.10;;
52494;SDS011;38405;53.212;5.660;2023-08-06T00:17:16;4.72;;;4.32;;
52494;SDS011;38405;53.212;5.660;2023-08-06T00:19:41;5.40;;;4.68;;
52494;SDS011;38405;53.212;5.660;2023-08-06T00:22:07;8.75;;;5.10;;
52494;SDS011;38405;53.212;5.660;2023-08-06T00:24:33;6.57;;;4.88;;
52494;SDS011;38405;53.212;5.660;2023-08-06T00:26:59;6.40;;;5.07;;
52494;SDS011;38405;53.212;5.660;2023-08-06T00:29:25;5.68;;;5.18;;
52494;SDS011;38405;53.212;5.660;2023-08-06T00:31:51;6.32;;;5.28;;
52494;SDS011;38405;53.212;5.660;2023-08-06T00:34:16;6.60;;;5.85;;
52494;SDS011;38405;53.212;5.660;2023-08-06T00:36:42;7.75;;;4.90;;
52494;SDS011;38405;53.212;5.660;2023-08-06T00:39:07;7.85;;;5.38;;
52494;SDS011;38405;53.212;5.660;2023-08-06T00:41:33;6.82;;;5.35;;
52494;SDS011;38405;53.212;5.660;2023-08-06T00:44:02;8.30;;;6.70;;
52494;SDS011;38405;53.212;5.660;2023-08-06T00:46:28;9.32;;;6.50;;
52494;SDS011;38405;53.212;5.660;2023-08-06T00:48:54;9.77;;;6.72;;
52494;SDS011;38405;53.212;5.660;2023-08-06T00:51:20;10.02;;;6.97;;
52494;SDS011;38405;53.212;5.660;2023-08-06T00:53:47;6.93;;;6.22;;
52494;SDS011;38405;53.212;5.660;2023-08-06T00:56:14;10.77;;;7.28;;
52494;SDS011;38405;53.212;5.660;2023-08-06T00:58:40;8.48;;;7.18;;
52494;SDS011;38405;53.212;5.660;2023-08-06T01:01:06;10.90;;;7.63;;
52494;SDS011;38405;53.212;5.660;2023-08-06T01:03:35;11.32;;;7.28;;
52494;SDS011;38405;53.212;5.660;2023-08-06T01:06:01;9.95;;;7.60;;
52494;SDS011;38405;53.212;5.660;2023-08-06T01:13:46;11.23;;;7.88;;
52494;SDS011;38405;53.212;5.660;2023-08-06T01:16:18;9.48;;;7.78;;
52494;SDS011;38405;53.212;5.660;2023-08-06T01:18:46;10.82;;;7.20;;
52494;SDS011;38405;53.212;5.660;2023-08-06T01:21:17;11.75;;;6.95;;
52494;SDS011;38405;53.212;5.660;2023-08-06T01:23:47;9.18;;;7.70;;
52494;SDS011;38405;53.212;5.660;2023-08-06T01:31:56;9.20;;;7.07;;
52494;SDS011;38405;53.212;5.660;2023-08-06T01:34:24;9.57;;;7.45;;
52494;SDS011;38405;53.212;5.660;2023-08-06T01:36:52;9.13;;;7.05;;
52494;SDS011;38405;53.212;5.660;2023-08-06T01:39:19;10.20;;;7.90;;
52494;SDS011;38405;53.212;5.660;2023-08-06T01:41:46;11.25;;;7.70;;
52494;SDS011;38405;53.212;5.660;2023-08-06T01:44:13;8.88;;;7.13;;
52494;SDS011;38405;53.212;5.660;2023-08-06T01:46:40;11.82;;;7.85;;
52494;SDS011;38405;53.212;5.660;2023-08-06T01:49:05;9.23;;;7.90;;
52494;SDS011;38405;53.212;5.660;2023-08-06T01:51:31;12.25;;;8.20;;
52494;SDS011;38405;53.212;5.660;2023-08-06T01:53:57;9.35;;;7.40;;
52494;SDS011;38405;53.212;5.660;2023-08-06T01:56:23;8.95;;;7.53;;
52494;SDS011;38405;53.212;5.660;2023-08-06T01:58:51;9.88;;;7.63;;
52494;SDS011;38405;53.212;5.660;2023-08-06T02:01:17;10.52;;;7.60;;
52494;SDS011;38405;53.212;5.660;2023-08-06T02:03:43;13.15;;;7.70;;
52494;SDS011;38405;53.212;5.660;2023-08-06T02:06:08;9.40;;;6.85;;
52494;SDS011;38405;53.212;5.660;2023-08-06T02:08:34;11.32;;;7.85;;
52494;SDS011;38405;53.212;5.660;2023-08-06T02:11:00;9.57;;;7.53;;
52494;SDS011;38405;53.212;5.660;2023-08-06T02:13:27;8.10;;;7.25;;
52494;SDS011;38405;53.212;5.660;2023-08-06T02:15:53;9.50;;;6.93;;
52494;SDS011;38405;53.212;5.660;2023-08-06T02:18:19;9.48;;;7.20;;
52494;SDS011;38405;53.212;5.660;2023-08-06T02:20:54;11.38;;;7.90;;
52494;SDS011;38405;53.212;5.660;2023-08-06T02:23:23;8.55;;;7.72;;
52494;SDS011;38405;53.212;5.660;2023-08-06T02:25:56;9.63;;;8.05;;
52494;SDS011;38405;53.212;5.660;2023-08-06T02:28:23;8.32;;;7.30;;
52494;SDS011;38405;53.212;5.660;2023-08-06T02:30:49;10.98;;;7.45;;
52494;SDS011;38405;53.212;5.660;2023-08-06T02:33:18;8.63;;;7.60;;
52494;SDS011;38405;53.212;5.660;2023-08-06T02:35:43;11.27;;;7.85;;
52494;SDS011;38405;53.212;5.660;2023-08-06T02:38:09;10.55;;;7.78;;
52494;SDS011;38405;53.212;5.660;2023-08-06T02:40:34;11.48;;;7.72;;
52494;SDS011;38405;53.212;5.660;2023-08-06T02:43:00;10.85;;;8.10;;
52494;SDS011;38405;53.212;5.660;2023-08-06T02:45:26;10.05;;;7.47;;
52494;SDS011;38405;53.212;5.660;2023-08-06T02:47:51;10.18;;;7.57;;
52494;SDS011;38405;53.212;5.660;2023-08-06T02:50:17;9.82;;;7.40;;
52494;SDS011;38405;53.212;5.660;2023-08-06T02:52:43;10.10;;;7.55;;
52494;SDS011;38405;53.212;5.660;2023-08-06T02:55:09;16.30;;;8.15;;
52494;SDS011;38405;53.212;5.660;2023-08-06T02:57:35;9.50;;;7.43;;
52494;SDS011;38405;53.212;5.660;2023-08-06T03:00:01;14.63;;;7.97;;
52494;SDS011;38405;53.212;5.660;2023-08-06T03:02:30;10.23;;;7.63;;
52494;SDS011;38405;53.212;5.660;2023-08-06T03:04:56;10.77;;;8.05;;
52494;SDS011;38405;53.212;5.660;2023-08-06T03:07:22;10.65;;;8.30;;
52494;SDS011;38405;53.212;5.660;2023-08-06T03:09:47;9.73;;;7.93;;
52494;SDS011;38405;53.212;5.660;2023-08-06T03:12:13;14.57;;;8.35;;
52494;SDS011;38405;53.212;5.660;2023-08-06T03:14:39;11.10;;;8.45;;
52494;SDS011;38405;53.212;5.660;2023-08-06T03:17:08;9.98;;;8.18;;
52494;SDS011;38405;53.212;5.660;2023-08-06T03:19:33;10.05;;;8.65;;
52494;SDS011;38405;53.212;5.660;2023-08-06T03:21:59;10.07;;;8.45;;
52494;SDS011;38405;53.212;5.660;2023-08-06T03:24:27;11.27;;;8.60;;
52494;SDS011;38405;53.212;5.660;2023-08-06T03:26:53;9.90;;;8.32;;
52494;SDS011;38405;53.212;5.660;2023-08-06T03:29:18;9.30;;;7.05;;
52494;SDS011;38405;53.212;5.660;2023-08-06T03:31:45;11.85;;;7.80;;
52494;SDS011;38405;53.212;5.660;2023-08-06T03:34:10;11.23;;;7.75;;
52494;SDS011;38405;53.212;5.660;2023-08-06T03:36:36;10.65;;;8.32;;
52494;SDS011;38405;53.212;5.660;2023-08-06T03:39:02;11.25;;;8.07;;
52494;SDS011;38405;53.212;5.660;2023-08-06T03:41:27;15.02;;;8.15;;
52494;SDS011;38405;53.212;5.660;2023-08-06T03:43:53;12.77;;;7.47;;
52494;SDS011;38405;53.212;5.660;2023-08-06T03:46:19;11.55;;;7.97;;
52494;SDS011;38405;53.212;5.660;2023-08-06T03:48:44;9.73;;;8.25;;
52494;SDS011;38405;53.212;5.660;2023-08-06T03:51:10;9.93;;;7.47;;
52494;SDS011;38405;53.212;5.660;2023-08-06T03:53:36;9.55;;;8.20;;
52494;SDS011;38405;53.212;5.660;2023-08-06T03:56:01;9.10;;;7.78;;
52494;SDS011;38405;53.212;5.660;2023-08-06T03:58:27;8.48;;;7.63;;
52494;SDS011;38405;53.212;5.660;2023-08-06T04:01:02;11.57;;;8.35;;
52494;SDS011;38405;53.212;5.660;2023-08-06T04:03:29;9.40;;;7.75;;
52494;SDS011;38405;53.212;5.660;2023-08-06T04:05:54;11.38;;;8.18;;
52494;SDS011;38405;53.212;5.660;2023-08-06T04:08:20;10.63;;;8.07;;
52494;SDS011;38405;53.212;5.660;2023-08-06T04:10:54;10.63;;;7.97;;
52494;SDS011;38405;53.212;5.660;2023-08-06T04:13:20;9.80;;;8.27;;
52494;SDS011;38405;53.212;5.660;2023-08-06T04:15:46;9.52;;;7.93;;
52494;SDS011;38405;53.212;5.660;2023-08-06T04:18:12;10.55;;;7.90;;
52494;SDS011;38405;53.212;5.660;2023-08-06T04:20:44;10.25;;;7.65;;
52494;SDS011;38405;53.212;5.660;2023-08-06T04:23:11;9.30;;;8.02;;
52494;SDS011;38405;53.212;5.660;2023-08-06T04:25:39;10.57;;;7.90;;
52494;SDS011;38405;53.212;5.660;2023-08-06T04:28:05;10.23;;;7.82;;
52494;SDS011;38405;53.212;5.660;2023-08-06T04:30:31;11.05;;;8.45;;
52494;SDS011;38405;53.212;5.660;2023-08-06T04:32:57;9.43;;;7.28;;
52494;SDS011;38405;53.212;5.660;2023-08-06T04:35:25;11.45;;;8.40;;
52494;SDS011;38405;53.212;5.660;2023-08-06T04:37:50;10.73;;;8.10;;
52494;SDS011;38405;53.212;5.660;2023-08-06T04:40:16;10.02;;;8.30;;
52494;SDS011;38405;53.212;5.660;2023-08-06T04:42:42;10.75;;;8.20;;
52494;SDS011;38405;53.212;5.660;2023-08-06T04:45:08;9.57;;;7.65;;
52494;SDS011;38405;53.212;5.660;2023-08-06T04:47:34;14.98;;;8.50;;
52494;SDS011;38405;53.212;5.660;2023-08-06T04:49:59;12.40;;;8.35;;
52494;SDS011;38405;53.212;5.660;2023-08-06T04:52:25;9.40;;;8.07;;
52494;SDS011;38405;53.212;5.660;2023-08-06T04:54:54;11.20;;;8.15;;
52494;SDS011;38405;53.212;5.660;2023-08-06T04:57:20;14.85;;;8.30;;
52494;SDS011;38405;53.212;5.660;2023-08-06T04:59:46;9.60;;;7.45;;
52494;SDS011;38405;53.212;5.660;2023-08-06T05:02:12;10.43;;;8.43;;
52494;SDS011;38405;53.212;5.660;2023-08-06T05:04:40;16.10;;;7.90;;
52494;SDS011;38405;53.212;5.660;2023-08-06T05:07:06;10.32;;;8.60;;
52494;SDS011;38405;53.212;5.660;2023-08-06T05:09:32;8.60;;;7.70;;
52494;SDS011;38405;53.212;5.660;2023-08-06T05:12:00;13.38;;;8.30;;
52494;SDS011;38405;53.212;5.660;2023-08-06T05:14:27;8.75;;;7.85;;
52494;SDS011;38405;53.212;5.660;2023-08-06T05:16:53;9.27;;;7.97;;
52494;SDS011;38405;53.212;5.660;2023-08-06T05:19:18;9.35;;;7.85;;
52494;SDS011;38405;53.212;5.660;2023-08-06T05:21:45;10.00;;;7.95;;
52494;SDS011;38405;53.212;5.660;2023-08-06T05:24:10;9.18;;;7.85;;
52494;SDS011;38405;53.212;5.660;2023-08-06T05:26:37;12.60;;;8.38;;
52494;SDS011;38405;53.212;5.660;2023-08-06T05:29:02;8.52;;;7.50;;
52494;SDS011;38405;53.212;5.660;2023-08-06T05:31:31;8.23;;;7.43;;
52494;SDS011;38405;53.212;5.660;2023-08-06T05:33:57;12.95;;;8.40;;
52494;SDS011;38405;53.212;5.660;2023-08-06T05:36:22;16.20;;;8.15;;
52494;SDS011;38405;53.212;5.660;2023-08-06T05:38:48;9.05;;;7.88;;
52494;SDS011;38405;53.212;5.660;2023-08-06T05:41:14;10.50;;;8.05;;
52494;SDS011;38405;53.212;5.660;2023-08-06T05:43:39;8.85;;;7.95;;
52494;SDS011;38405;53.212;5.660;2023-08-06T05:46:05;12.15;;;7.95;;
52494;SDS011;38405;53.212;5.660;2023-08-06T05:48:30;13.02;;;7.80;;
52494;SDS011;38405;53.212;5.660;2023-08-06T05:50:57;9.88;;;8.07;;
52494;SDS011;38405;53.212;5.660;2023-08-06T05:53:23;9.07;;;8.07;;
52494;SDS011;38405;53.212;5.660;2023-08-06T05:55:49;9.45;;;7.75;;
52494;SDS011;38405;53.212;5.660;2023-08-06T05:58:16;13.05;;;8.50;;
52494;SDS011;38405;53.212;5.660;2023-08-06T06:00:42;11.65;;;7.93;;
52494;SDS011;38405;53.212;5.660;2023-08-06T06:03:08;10.52;;;8.38;;
52494;SDS011;38405;53.212;5.660;2023-08-06T06:05:34;11.43;;;8.30;;
52494;SDS011;38405;53.212;5.660;2023-08-06T06:08:02;10.57;;;8.35;;
52494;SDS011;38405;53.212;5.660;2023-08-06T06:10:28;9.23;;;7.88;;
52494;SDS011;38405;53.212;5.660;2023-08-06T06:12:53;9.00;;;8.10;;
52494;SDS011;38405;53.212;5.660;2023-08-06T06:15:19;8.35;;;7.55;;
52494;SDS011;38405;53.212;5.660;2023-08-06T06:17:45;11.55;;;7.75;;
52494;SDS011;38405;53.212;5.660;2023-08-06T06:20:10;13.45;;;7.90;;
52494;SDS011;38405;53.212;5.660;2023-08-06T06:22:36;9.90;;;7.47;;
52494;SDS011;38405;53.212;5.660;2023-08-06T06:25:02;10.23;;;7.93;;
52494;SDS011;38405;53.212;5.660;2023-08-06T06:27:28;8.20;;;7.40;;
52494;SDS011;38405;53.212;5.660;2023-08-06T06:29:53;8.55;;;7.43;;
52494;SDS011;38405;53.212;5.660;2023-08-06T06:32:20;10.10;;;7.07;;
52494;SDS011;38405;53.212;5.660;2023-08-06T06:34:46;8.18;;;7.20;;
52494;SDS011;38405;53.212;5.660;2023-08-06T06:37:11;10.52;;;7.32;;
52494;SDS011;38405;53.212;5.660;2023-08-06T06:39:37;8.30;;;7.35;;
52494;SDS011;38405;53.212;5.660;2023-08-06T06:42:03;8.45;;;7.63;;
52494;SDS011;38405;53.212;5.660;2023-08-06T06:44:29;9.82;;;8.00;;
52494;SDS011;38405;53.212;5.660;2023-08-06T06:46:54;8.50;;;7.60;;
52494;SDS011;38405;53.212;5.660;2023-08-06T06:49:20;9.00;;;6.55;;
52494;SDS011;38405;53.212;5.660;2023-08-06T06:51:46;8.60;;;7.55;;
52494;SDS011;38405;53.212;5.660;2023-08-06T06:54:11;8.60;;;7.53;;
52494;SDS011;38405;53.212;5.660;2023-08-06T06:56:37;9.48;;;6.90;;
52494;SDS011;38405;53.212;5.660;2023-08-06T06:59:03;13.10;;;6.95;;
52494;SDS011;38405;53.212;5.660;2023-08-06T07:01:28;8.07;;;6.70;;
52494;SDS011;38405;53.212;5.660;2023-08-06T07:03:54;7.70;;;6.93;;
52494;SDS011;38405;53.212;5.660;2023-08-06T07:06:20;7.80;;;6.70;;
52494;SDS011;38405;53.212;5.660;2023-08-06T07:08:45;8.95;;;7.05;;
52494;SDS011;38405;53.212;5.660;2023-08-06T07:11:11;7.32;;;6.63;;
52494;SDS011;38405;53.212;5.660;2023-08-06T07:13:37;7.53;;;6.70;;
52494;SDS011;38405;53.212;5.660;2023-08-06T07:16:02;6.97;;;6.35;;
52494;SDS011;38405;53.212;5.660;2023-08-06T07:18:30;13.60;;;6.78;;
52494;SDS011;38405;53.212;5.660;2023-08-06T07:21:05;8.30;;;6.25;;
52494;SDS011;38405;53.212;5.660;2023-08-06T07:23:31;7.43;;;6.05;;
52494;SDS011;38405;53.212;5.660;2023-08-06T07:25:57;9.52;;;6.50;;
52494;SDS011;38405;53.212;5.660;2023-08-06T07:28:23;8.40;;;5.65;;
52494;SDS011;38405;53.212;5.660;2023-08-06T07:30:49;6.20;;;5.65;;
52494;SDS011;38405;53.212;5.660;2023-08-06T07:33:18;6.45;;;5.70;;
52494;SDS011;38405;53.212;5.660;2023-08-06T07:35:44;6.97;;;5.65;;
52494;SDS011;38405;53.212;5.660;2023-08-06T07:38:09;8.60;;;5.78;;
52494;SDS011;38405;53.212;5.660;2023-08-06T07:40:36;6.80;;;6.18;;
52494;SDS011;38405;53.212;5.660;2023-08-06T07:43:02;7.82;;;6.28;;
52494;SDS011;38405;53.212;5.660;2023-08-06T07:45:32;5.93;;;5.07;;
52494;SDS011;38405;53.212;5.660;2023-08-06T07:47:59;7.95;;;5.68;;
52494;SDS011;38405;53.212;5.660;2023-08-06T07:50:24;10.32;;;5.63;;
52494;SDS011;38405;53.212;5.660;2023-08-06T07:52:50;8.23;;;5.57;;
52494;SDS011;38405;53.212;5.660;2023-08-06T07:55:16;7.15;;;5.40;;
52494;SDS011;38405;53.212;5.660;2023-08-06T07:57:41;6.03;;;5.43;;
52494;SDS011;38405;53.212;5.660;2023-08-06T08:00:07;6.22;;;5.53;;
52494;SDS011;38405;53.212;5.660;2023-08-06T08:02:34;7.78;;;5.38;;
52494;SDS011;38405;53.212;5.660;2023-08-06T08:05:00;5.90;;;5.30;;
52494;SDS011;38405;53.212;5.660;2023-08-06T08:07:25;5.88;;;5.20;;
52494;SDS011;38405;53.212;5.660;2023-08-06T08:09:53;8.55;;;5.20;;
52494;SDS011;38405;53.212;5.660;2023-08-06T08:12:19;8.07;;;5.10;;
52494;SDS011;38405;53.212;5.660;2023-08-06T08:14:45;4.68;;;4.28;;
52494;SDS011;38405;53.212;5.660;2023-08-06T08:17:11;4.93;;;4.40;;
52494;SDS011;38405;53.212;5.660;2023-08-06T08:19:40;5.28;;;4.25;;
52494;SDS011;38405;53.212;5.660;2023-08-06T08:22:06;5.15;;;4.40;;
52494;SDS011;38405;53.212;5.660;2023-08-06T08:24:32;4.78;;;4.38;;
52494;SDS011;38405;53.212;5.660;2023-08-06T08:26:57;6.10;;;4.38;;
52494;SDS011;38405;53.212;5.660;2023-08-06T08:29:26;5.05;;;4.30;;
52494;SDS011;38405;53.212;5.660;2023-08-06T08:31:52;6.63;;;4.30;;
52494;SDS011;38405;53.212;5.660;2023-08-06T08:34:17;6.95;;;4.35;;
52494;SDS011;38405;53.212;5.660;2023-08-06T08:36:43;6.60;;;4.60;;
52494;SDS011;38405;53.212;5.660;2023-08-06T08:39:15;6.45;;;4.10;;
52494;SDS011;38405;53.212;5.660;2023-08-06T08:41:41;5.47;;;3.97;;
52494;SDS011;38405;53.212;5.660;2023-08-06T08:44:10;4.60;;;4.00;;
52494;SDS011;38405;53.212;5.660;2023-08-06T08:46:38;6.10;;;4.18;;
52494;SDS011;38405;53.212;5.660;2023-08-06T08:49:05;4.60;;;3.63;;
52494;SDS011;38405;53.212;5.660;2023-08-06T08:51:32;3.50;;;3.20;;
52494;SDS011;38405;53.212;5.660;2023-08-06T08:54:02;5.35;;;3.53;;
52494;SDS011;38405;53.212;5.660;2023-08-06T08:56:28;4.93;;;2.70;;
52494;SDS011;38405;53.212;5.660;2023-08-06T08:58:54;3.30;;;2.58;;
52494;SDS011;38405;53.212;5.660;2023-08-06T09:01:23;3.45;;;2.40;;
52494;SDS011;38405;53.212;5.660;2023-08-06T09:03:50;2.83;;;2.15;;
52494;SDS011;38405;53.212;5.660;2023-08-06T09:06:19;4.28;;;2.50;;
52494;SDS011;38405;53.212;5.660;2023-08-06T09:11:50;2.30;;;2.10;;
52494;SDS011;38405;53.212;5.660;2023-08-06T09:14:16;3.45;;;2.17;;
52494;SDS011;38405;53.212;5.660;2023-08-06T09:16:43;3.88;;;2.25;;
52494;SDS011;38405;53.212;5.660;2023-08-06T09:19:09;2.58;;;1.90;;
52494;SDS011;38405;53.212;5.660;2023-08-06T09:21:40;2.85;;;1.80;;
52494;SDS011;38405;53.212;5.660;2023-08-06T09:24:10;2.72;;;1.90;;
52494;SDS011;38405;53.212;5.660;2023-08-06T09:26:37;2.33;;;1.52;;
52494;SDS011;38405;53.212;5.660;2023-08-06T09:29:06;5.03;;;2.30;;
52494;SDS011;38405;53.212;5.660;2023-08-06T09:31:39;2.88;;;2.38;;
52494;SDS011;38405;53.212;5.660;2023-08-06T09:34:15;2.88;;;2.15;;
52494;SDS011;38405;53.212;5.660;2023-08-06T09:36:43;4.13;;;2.20;;
52494;SDS011;38405;53.212;5.660;2023-08-06T09:39:16;3.22;;;1.90;;
52494;SDS011;38405;53.212;5.660;2023-08-06T09:41:43;3.40;;;2.13;;
52494;SDS011;38405;53.212;5.660;2023-08-06T09:44:15;2.78;;;2.10;;
52494;SDS011;38405;53.212;5.660;2023-08-06T09:46:49;6.88;;;1.83;;
52494;SDS011;38405;53.212;5.660;2023-08-06T09:49:20;6.90;;;2.42;;
52494;SDS011;38405;53.212;5.660;2023-08-06T09:51:50;2.80;;;1.90;;
52494;SDS011;38405;53.212;5.660;2023-08-06T09:54:18;2.35;;;1.95;;
52494;SDS011;38405;53.212;5.660;2023-08-06T09:56:45;2.10;;;1.70;;
52494;SDS011;38405;53.212;5.660;2023-08-06T09:59:11;3.80;;;2.17;;
52494;SDS011;38405;53.212;5.660;2023-08-06T10:01:44;4.22;;;2.63;;
52494;SDS011;38405;53.212;5.660;2023-08-06T10:04:11;5.82;;;2.03;;
52494;SDS011;38405;53.212;5.660;2023-08-06T10:06:41;3.72;;;1.83;;
52494;SDS011;38405;53.212;5.660;2023-08-06T10:09:07;3.35;;;1.98;;
52494;SDS011;38405;53.212;5.660;2023-08-06T10:11:34;7.70;;;1.92;;
52494;SDS011;38405;53.212;5.660;2023-08-06T10:14:06;3.40;;;2.13;;
52494;SDS011;38405;53.212;5.660;2023-08-06T10:16:36;5.75;;;2.08;;
52494;SDS011;38405;53.212;5.660;2023-08-06T10:19:05;5.05;;;1.92;;
52494;SDS011;38405;53.212;5.660;2023-08-06T10:21:34;3.42;;;1.95;;
52494;SDS011;38405;53.212;5.660;2023-08-06T10:24:00;2.17;;;1.98;;
52494;SDS011;38405;53.212;5.660;2023-08-06T10:26:33;8.18;;;2.10;;
52494;SDS011;38405;53.212;5.660;2023-08-06T10:28:59;3.10;;;2.00;;
52494;SDS011;38405;53.212;5.660;2023-08-06T10:31:52;3.50;;;2.20;;
52494;SDS011;38405;53.212;5.660;2023-08-06T10:34:22;3.17;;;1.85;;
52494;SDS011;38405;53.212;5.660;2023-08-06T10:36:48;3.33;;;2.03;;
52494;SDS011;38405;53.212;5.660;2023-08-06T10:39:14;2.15;;;1.95;;
52494;SDS011;38405;53.212;5.660;2023-08-06T10:41:42;4.30;;;1.88;;
52494;SDS011;38405;53.212;5.660;2023-08-06T10:44:09;2.10;;;1.65;;
52494;SDS011;38405;53.212;5.660;2023-08-06T10:46:37;4.55;;;2.30;;
52494;SDS011;38405;53.212;5.660;2023-08-06T10:49:03;2.83;;;2.10;;
52494;SDS011;38405;53.212;5.660;2023-08-06T10:51:29;2.40;;;2.13;;
52494;SDS011;38405;53.212;5.660;2023-08-06T10:53:55;4.50;;;2.10;;
52494;SDS011;38405;53.212;5.660;2023-08-06T10:56:23;6.93;;;2.70;;
52494;SDS011;38405;53.212;5.660;2023-08-06T10:58:51;2.83;;;2.47;;
52494;SDS011;38405;53.212;5.660;2023-08-06T11:01:21;2.72;;;2.17;;
52494;SDS011;38405;53.212;5.660;2023-08-06T11:03:47;2.70;;;2.50;;
52494;SDS011;38405;53.212;5.660;2023-08-06T11:06:18;3.53;;;2.00;;
52494;SDS011;38405;53.212;5.660;2023-08-06T11:08:49;4.82;;;2.38;;
52494;SDS011;38405;53.212;5.660;2023-08-06T11:11:16;3.17;;;2.33;;
52494;SDS011;38405;53.212;5.660;2023-08-06T11:13:43;2.90;;;2.22;;
52494;SDS011;38405;53.212;5.660;2023-08-06T11:16:11;3.35;;;2.15;;
52494;SDS011;38405;53.212;5.660;2023-08-06T11:18:41;2.92;;;2.17;;
52494;SDS011;38405;53.212;5.660;2023-08-06T11:21:08;3.90;;;2.17;;
52494;SDS011;38405;53.212;5.660;2023-08-06T11:23:34;3.35;;;2.10;;
52494;SDS011;38405;53.212;5.660;2023-08-06T11:26:01;6.20;;;1.83;;
52494;SDS011;38405;53.212;5.660;2023-08-06T11:28:27;6.47;;;2.20;;
52494;SDS011;38405;53.212;5.660;2023-08-06T11:30:53;2.55;;;2.15;;
52494;SDS011;38405;53.212;5.660;2023-08-06T11:33:23;4.28;;;2.42;;
52494;SDS011;38405;53.212;5.660;2023-08-06T11:35:50;2.40;;;2.20;;
52494;SDS011;38405;53.212;5.660;2023-08-06T11:38:16;4.22;;;2.55;;
52494;SDS011;38405;53.212;5.660;2023-08-06T11:40:46;2.65;;;2.17;;
52494;SDS011;38405;53.212;5.660;2023-08-06T11:43:12;3.78;;;2.22;;
52494;SDS011;38405;53.212;5.660;2023-08-06T11:45:40;3.83;;;2.63;;
52494;SDS011;38405;53.212;5.660;2023-08-06T11:48:07;4.60;;;2.60;;
52494;SDS011;38405;53.212;5.660;2023-08-06T11:50:36;4.20;;;3.05;;
52494;SDS011;38405;53.212;5.660;2023-08-06T11:53:05;4.53;;;3.15;;
52494;SDS011;38405;53.212;5.660;2023-08-06T11:55:31;3.30;;;2.70;;
52494;SDS011;38405;53.212;5.660;2023-08-06T11:57:58;3.42;;;2.90;;
52494;SDS011;38405;53.212;5.660;2023-08-06T12:00:28;3.70;;;2.65;;
52494;SDS011;38405;53.212;5.660;2023-08-06T12:02:54;2.75;;;2.50;;
52494;SDS011;38405;53.212;5.660;2023-08-06T12:05:30;4.22;;;2.65;;
52494;SDS011;38405;53.212;5.660;2023-08-06T12:08:01;3.17;;;2.47;;
52494;SDS011;38405;53.212;5.660;2023-08-06T12:10:29;3.00;;;2.70;;
52494;SDS011;38405;53.212;5.660;2023-08-06T12:12:55;3.60;;;2.60;;
52494;SDS011;38405;53.212;5.660;2023-08-06T12:15:21;2.63;;;2.38;;
52494;SDS011;38405;53.212;5.660;2023-08-06T12:17:48;2.95;;;2.53;;
52494;SDS011;38405;53.212;5.660;2023-08-06T12:20:13;2.80;;;2.50;;
52494;SDS011;38405;53.212;5.660;2023-08-06T12:22:39;2.88;;;2.22;;
52494;SDS011;38405;53.212;5.660;2023-08-06T12:25:08;2.45;;;2.25;;
52494;SDS011;38405;53.212;5.660;2023-08-06T12:27:43;2.67;;;2.40;;
52494;SDS011;38405;53.212;5.660;2023-08-06T12:30:10;3.25;;;2.65;;
52494;SDS011;38405;53.212;5.660;2023-08-06T12:32:36;3.92;;;2.10;;
52494;SDS011;38405;53.212;5.660;2023-08-06T12:35:03;2.40;;;2.00;;
52494;SDS011;38405;53.212;5.660;2023-08-06T12:37:30;2.30;;;2.10;;
52494;SDS011;38405;53.212;5.660;2023-08-06T12:39:58;3.20;;;1.90;;
52494;SDS011;38405;53.212;5.660;2023-08-06T12:42:24;3.60;;;2.50;;
52494;SDS011;38405;53.212;5.660;2023-08-06T12:44:52;2.25;;;2.03;;
52494;SDS011;38405;53.212;5.660;2023-08-06T12:47:18;2.40;;;1.90;;
52494;SDS011;38405;53.212;5.660;2023-08-06T12:49:45;2.45;;;2.22;;
52494;SDS011;38405;53.212;5.660;2023-08-06T12:52:10;8.27;;;2.35;;
52494;SDS011;38405;53.212;5.660;2023-08-06T12:54:37;2.08;;;1.80;;
52494;SDS011;38405;53.212;5.660;2023-08-06T12:57:04;3.03;;;2.03;;
52494;SDS011;38405;53.212;5.660;2023-08-06T12:59:30;4.13;;;2.00;;
52494;SDS011;38405;53.212;5.660;2023-08-06T13:01:58;3.92;;;2.60;;
52494;SDS011;38405;53.212;5.660;2023-08-06T13:04:24;5.13;;;2.03;;
52494;SDS011;38405;53.212;5.660;2023-08-06T13:06:49;2.70;;;1.90;;
52494;SDS011;38405;53.212;5.660;2023-08-06T13:09:15;3.60;;;1.80;;
52494;SDS011;38405;53.212;5.660;2023-08-06T13:11:41;5.60;;;2.00;;
52494;SDS011;38405;53.212;5.660;2023-08-06T13:14:10;8.55;;;2.00;;
52494;SDS011;38405;53.212;5.660;2023-08-06T13:16:37;2.78;;;2.00;;
52494;SDS011;38405;53.212;5.660;2023-08-06T13:19:05;3.70;;;2.00;;
52494;SDS011;38405;53.212;5.660;2023-08-06T13:22:14;3.95;;;1.90;;
52494;SDS011;38405;53.212;5.660;2023-08-06T13:24:25;2.95;;;1.90;;
52494;SDS011;38405;53.212;5.660;2023-08-06T13:26:52;4.13;;;1.92;;
52494;SDS011;38405;53.212;5.660;2023-08-06T13:29:18;7.57;;;2.38;;
52494;SDS011;38405;53.212;5.660;2023-08-06T13:31:43;2.92;;;1.85;;
52494;SDS011;38405;53.212;5.660;2023-08-06T13:34:09;2.35;;;1.80;;
52494;SDS011;38405;53.212;5.660;2023-08-06T13:36:35;4.45;;;2.05;;
52494;SDS011;38405;53.212;5.660;2023-08-06T13:39:00;2.88;;;1.80;;
52494;SDS011;38405;53.212;5.660;2023-08-06T13:41:26;3.03;;;1.80;;
52494;SDS011;38405;53.212;5.660;2023-08-06T13:43:52;3.17;;;1.80;;
52494;SDS011;38405;53.212;5.660;2023-08-06T13:46:17;3.10;;;1.90;;
52494;SDS011;38405;53.212;5.660;2023-08-06T13:48:45;4.43;;;1.70;;
52494;SDS011;38405;53.212;5.660;2023-08-06T13:51:12;3.85;;;1.98;;
52494;SDS011;38405;53.212;5.660;2023-08-06T13:53:38;3.70;;;2.30;;
52494;SDS011;38405;53.212;5.660;2023-08-06T13:56:11;3.42;;;1.70;;
52494;SDS011;38405;53.212;5.660;2023-08-06T13:58:37;4.23;;;2.03;;
52494;SDS011;38405;53.212;5.660;2023-08-06T14:01:03;2.15;;;1.75;;
52494;SDS011;38405;53.212;5.660;2023-08-06T14:03:29;5.15;;;2.00;;
52494;SDS011;38405;53.212;5.660;2023-08-06T14:05:58;2.10;;;1.77;;
52494;SDS011;38405;53.212;5.660;2023-08-06T14:08:24;4.03;;;1.90;;
52494;SDS011;38405;53.212;5.660;2023-08-06T14:10:50;5.78;;;2.08;;
52494;SDS011;38405;53.212;5.660;2023-08-06T14:13:19;3.53;;;1.75;;
52494;SDS011;38405;53.212;5.660;2023-08-06T14:15:46;1.75;;;1.60;;
52494;SDS011;38405;53.212;5.660;2023-08-06T14:18:13;2.40;;;1.58;;
52494;SDS011;38405;53.212;5.660;2023-08-06T14:20:41;1.73;;;1.55;;
52494;SDS011;38405;53.212;5.660;2023-08-06T14:23:10;3.83;;;1.67;;
52494;SDS011;38405;53.212;5.660;2023-08-06T14:25:36;1.70;;;1.60;;
52494;SDS011;38405;53.212;5.660;2023-08-06T14:28:02;3.30;;;2.00;;
52494;SDS011;38405;53.212;5.660;2023-08-06T14:30:28;3.08;;;1.77;;
52494;SDS011;38405;53.212;5.660;2023-08-06T14:32:54;3.22;;;1.98;;
52494;SDS011;38405;53.212;5.660;2023-08-06T14:35:20;3.85;;;1.83;;
52494;SDS011;38405;53.212;5.660;2023-08-06T14:37:45;1.95;;;1.80;;
52494;SDS011;38405;53.212;5.660;2023-08-06T14:40:11;3.15;;;1.55;;
52494;SDS011;38405;53.212;5.660;2023-08-06T14:42:37;3.38;;;2.13;;
52494;SDS011;38405;53.212;5.660;2023-08-06T14:45:06;2.88;;;1.95;;
52494;SDS011;38405;53.212;5.660;2023-08-06T14:47:31;4.13;;;2.00;;
52494;SDS011;38405;53.212;5.660;2023-08-06T14:50:00;2.08;;;1.55;;
52494;SDS011;38405;53.212;5.660;2023-08-06T14:52:25;2.47;;;1.98;;
52494;SDS011;38405;53.212;5.660;2023-08-06T14:54:51;3.20;;;1.70;;
52494;SDS011;38405;53.212;5.660;2023-08-06T14:57:20;2.50;;;1.48;;